sensor_id;sensor_type;location;lat;lon;timestamp;P1;durP1;ratioP1;P2;durP2;ratioP2
79025;SDS011;71097;44.760;37.726;2023-07-09T00:00:53;28.40;;;22.52;;
79025;SDS011;71097;44.760;37.726;2023-07-09T00:01:54;30.13;;;25.88;;
79025;SDS011;71097;44.760;37.726;2023-07-09T00:02:56;30.67;;;24.77;;
79025;SDS011;71097;44.760;37.726;2023-07-09T00:03:59;28.05;;;22.35;;
79025;SDS011;71097;44.760;37.726;2023-07-09T00:05:00;29.75;;;22.95;;
79025;SDS011;71097;44.760;37.726;2023-07-09T00:06:01;31.35;;;23.33;;
79025;SDS011;71097;44.760;37.726;2023-07-09T00:07:03;30.38;;;23.55;;
79025;SDS011;71097;44.760;37.726;2023-07-09T00:08:07;30.98;;;22.08;;
79025;SDS011;71097;44.760;37.726;2023-07-09T00:09:25;29.38;;;22.90;;
79025;SDS011;71097;44.760;37.726;2023-07-09T00:10:27;28.05;;;23.92;;
79025;SDS011;71097;44.760;37.726;2023-07-09T00:11:28;24.95;;;21.88;;
79025;SDS011;71097;44.760;37.726;2023-07-09T00:12:30;26.50;;;23.60;;
79025;SDS011;71097;44.760;37.726;2023-07-09T00:13:32;26.73;;;22.67;;
79025;SDS011;71097;44.760;37.726;2023-07-09T00:14:33;29.55;;;22.35;;
79025;SDS011;71097;44.760;37.726;2023-07-09T00:15:35;30.15;;;23.35;;
79025;SDS011;71097;44.760;37.726;2023-07-09T00:16:37;27.05;;;22.85;;
79025;SDS011;71097;44.760;37.726;2023-07-09T00:17:39;27.77;;;23.25;;
79025;SDS011;71097;44.760;37.726;2023-07-09T00:18:41;28.38;;;22.58;;
79025;SDS011;71097;44.760;37.726;2023-07-09T00:19:43;26.23;;;22.13;;
79025;SDS011;71097;44.760;37.726;2023-07-09T00:20:45;28.55;;;23.38;;
79025;SDS011;71097;44.760;37.726;2023-07-09T00:21:49;28.45;;;24.20;;
79025;SDS011;71097;44.760;37.726;2023-07-09T00:22:54;27.98;;;23.27;;
79025;SDS011;71097;44.760;37.726;2023-07-09T00:23:55;27.98;;;23.70;;
79025;SDS011;71097;44.760;37.726;2023-07-09T00:24:57;29.73;;;23.75;;
79025;SDS011;71097;44.760;37.726;2023-07-09T00:25:58;32.30;;;22.75;;
79025;SDS011;71097;44.760;37.726;2023-07-09T00:27:00;28.83;;;22.85;;
79025;SDS011;71097;44.760;37.726;2023-07-09T00:28:02;27.77;;;23.23;;
79025;SDS011;71097;44.760;37.726;2023-07-09T00:29:04;30.35;;;24.73;;
79025;SDS011;71097;44.760;37.726;2023-07-09T00:30:08;27.90;;;21.52;;
79025;SDS011;71097;44.760;37.726;2023-07-09T00:31:16;26.48;;;22.17;;
79025;SDS011;71097;44.760;37.726;2023-07-09T00:32:18;27.23;;;21.58;;
79025;SDS011;71097;44.760;37.726;2023-07-09T00:33:25;26.80;;;23.02;;
79025;SDS011;71097;44.760;37.726;2023-07-09T00:34:32;26.45;;;23.38;;
79025;SDS011;71097;44.760;37.726;2023-07-09T00:35:36;25.83;;;21.42;;
79025;SDS011;71097;44.760;37.726;2023-07-09T00:36:37;28.98;;;24.58;;
79025;SDS011;71097;44.760;37.726;2023-07-09T00:37:40;28.52;;;24.63;;
79025;SDS011;71097;44.760;37.726;2023-07-09T00:38:45;28.45;;;22.63;;
79025;SDS011;71097;44.760;37.726;2023-07-09T00:39:48;28.25;;;22.42;;
79025;SDS011;71097;44.760;37.726;2023-07-09T00:41:23;25.80;;;21.88;;
79025;SDS011;71097;44.760;37.726;2023-07-09T00:42:20;28.55;;;21.27;;
79025;SDS011;71097;44.760;37.726;2023-07-09T00:43:24;23.45;;;20.38;;
79025;SDS011;71097;44.760;37.726;2023-07-09T00:44:29;26.90;;;21.15;;
79025;SDS011;71097;44.760;37.726;2023-07-09T00:45:32;25.52;;;22.80;;
79025;SDS011;71097;44.760;37.726;2023-07-09T00:47:39;25.73;;;23.15;;
79025;SDS011;71097;44.760;37.726;2023-07-09T00:48:59;27.15;;;24.25;;
79025;SDS011;71097;44.760;37.726;2023-07-09T00:50:15;24.83;;;22.20;;
79025;SDS011;71097;44.760;37.726;2023-07-09T00:51:21;23.90;;;21.17;;
79025;SDS011;71097;44.760;37.726;2023-07-09T00:52:25;29.08;;;23.40;;
79025;SDS011;71097;44.760;37.726;2023-07-09T00:53:34;25.33;;;19.67;;
79025;SDS011;71097;44.760;37.726;2023-07-09T00:54:37;25.55;;;21.05;;
79025;SDS011;71097;44.760;37.726;2023-07-09T00:55:42;26.67;;;21.77;;
79025;SDS011;71097;44.760;37.726;2023-07-09T00:56:47;25.33;;;22.35;;
79025;SDS011;71097;44.760;37.726;2023-07-09T00:57:54;25.73;;;20.38;;
79025;SDS011;71097;44.760;37.726;2023-07-09T00:59:01;29.83;;;21.77;;
79025;SDS011;71097;44.760;37.726;2023-07-09T01:00:06;23.50;;;20.38;;
79025;SDS011;71097;44.760;37.726;2023-07-09T01:01:18;29.73;;;21.17;;
79025;SDS011;71097;44.760;37.726;2023-07-09T01:02:20;25.77;;;19.50;;
79025;SDS011;71097;44.760;37.726;2023-07-09T01:03:37;30.38;;;20.50;;
79025;SDS011;71097;44.760;37.726;2023-07-09T01:04:46;25.27;;;20.90;;
79025;SDS011;71097;44.760;37.726;2023-07-09T01:05:48;29.90;;;21.17;;
79025;SDS011;71097;44.760;37.726;2023-07-09T01:06:53;26.02;;;20.42;;
79025;SDS011;71097;44.760;37.726;2023-07-09T01:07:56;24.23;;;20.48;;
79025;SDS011;71097;44.760;37.726;2023-07-09T01:08:59;24.73;;;20.88;;
79025;SDS011;71097;44.760;37.726;2023-07-09T01:11:04;25.88;;;19.90;;
79025;SDS011;71097;44.760;37.726;2023-07-09T01:12:09;24.58;;;20.15;;
79025;SDS011;71097;44.760;37.726;2023-07-09T01:13:11;29.08;;;23.25;;
79025;SDS011;71097;44.760;37.726;2023-07-09T01:14:14;30.20;;;20.10;;
79025;SDS011;71097;44.760;37.726;2023-07-09T01:15:20;26.15;;;20.15;;
79025;SDS011;71097;44.760;37.726;2023-07-09T01:16:24;26.77;;;19.92;;
79025;SDS011;71097;44.760;37.726;2023-07-09T01:17:28;26.63;;;20.08;;
79025;SDS011;71097;44.760;37.726;2023-07-09T01:18:30;25.08;;;19.83;;
79025;SDS011;71097;44.760;37.726;2023-07-09T01:19:43;26.30;;;19.92;;
79025;SDS011;71097;44.760;37.726;2023-07-09T01:20:45;23.55;;;19.83;;
79025;SDS011;71097;44.760;37.726;2023-07-09T01:21:47;24.08;;;20.25;;
79025;SDS011;71097;44.760;37.726;2023-07-09T01:22:50;29.33;;;20.23;;
79025;SDS011;71097;44.760;37.726;2023-07-09T01:23:55;23.90;;;20.75;;
79025;SDS011;71097;44.760;37.726;2023-07-09T01:25:02;24.52;;;19.23;;
79025;SDS011;71097;44.760;37.726;2023-07-09T01:26:09;23.10;;;19.65;;
79025;SDS011;71097;44.760;37.726;2023-07-09T01:27:16;24.60;;;20.33;;
79025;SDS011;71097;44.760;37.726;2023-07-09T01:28:19;23.88;;;20.23;;
79025;SDS011;71097;44.760;37.726;2023-07-09T01:29:21;24.48;;;20.88;;
79025;SDS011;71097;44.760;37.726;2023-07-09T01:30:24;23.23;;;20.05;;
79025;SDS011;71097;44.760;37.726;2023-07-09T01:31:34;23.77;;;21.20;;
79025;SDS011;71097;44.760;37.726;2023-07-09T01:32:38;22.55;;;20.08;;
79025;SDS011;71097;44.760;37.726;2023-07-09T01:33:40;24.85;;;19.50;;
79025;SDS011;71097;44.760;37.726;2023-07-09T01:34:54;24.15;;;19.88;;
79025;SDS011;71097;44.760;37.726;2023-07-09T01:36:06;23.02;;;19.70;;
79025;SDS011;71097;44.760;37.726;2023-07-09T01:37:08;22.77;;;19.00;;
79025;SDS011;71097;44.760;37.726;2023-07-09T01:38:10;22.25;;;19.15;;
79025;SDS011;71097;44.760;37.726;2023-07-09T01:39:12;23.25;;;19.73;;
79025;SDS011;71097;44.760;37.726;2023-07-09T01:40:14;22.73;;;20.30;;
79025;SDS011;71097;44.760;37.726;2023-07-09T01:41:19;23.67;;;19.38;;
79025;SDS011;71097;44.760;37.726;2023-07-09T01:42:22;23.63;;;19.88;;
79025;SDS011;71097;44.760;37.726;2023-07-09T01:43:26;21.38;;;19.00;;
79025;SDS011;71097;44.760;37.726;2023-07-09T01:44:29;23.10;;;19.80;;
79025;SDS011;71097;44.760;37.726;2023-07-09T01:45:30;22.23;;;19.17;;
79025;SDS011;71097;44.760;37.726;2023-07-09T01:46:33;22.50;;;18.65;;
79025;SDS011;71097;44.760;37.726;2023-07-09T01:47:36;19.92;;;17.70;;
79025;SDS011;71097;44.760;37.726;2023-07-09T01:48:38;22.45;;;19.02;;
79025;SDS011;71097;44.760;37.726;2023-07-09T01:49:46;23.73;;;21.17;;
79025;SDS011;71097;44.760;37.726;2023-07-09T01:50:47;21.55;;;18.80;;
79025;SDS011;71097;44.760;37.726;2023-07-09T01:52:53;21.48;;;17.90;;
79025;SDS011;71097;44.760;37.726;2023-07-09T01:53:55;20.10;;;17.95;;
79025;SDS011;71097;44.760;37.726;2023-07-09T01:54:57;25.55;;;20.10;;
79025;SDS011;71097;44.760;37.726;2023-07-09T01:55:59;23.58;;;18.27;;
79025;SDS011;71097;44.760;37.726;2023-07-09T01:57:14;21.98;;;18.95;;
79025;SDS011;71097;44.760;37.726;2023-07-09T01:58:24;20.60;;;18.25;;
79025;SDS011;71097;44.760;37.726;2023-07-09T01:59:26;21.63;;;18.35;;
79025;SDS011;71097;44.760;37.726;2023-07-09T02:00:28;20.13;;;17.58;;
79025;SDS011;71097;44.760;37.726;2023-07-09T02:01:30;19.65;;;17.55;;
79025;SDS011;71097;44.760;37.726;2023-07-09T02:02:36;20.30;;;17.67;;
79025;SDS011;71097;44.760;37.726;2023-07-09T02:03:45;20.10;;;17.75;;
79025;SDS011;71097;44.760;37.726;2023-07-09T02:04:51;18.65;;;16.67;;
79025;SDS011;71097;44.760;37.726;2023-07-09T02:05:54;19.27;;;17.20;;
79025;SDS011;71097;44.760;37.726;2023-07-09T02:06:58;22.15;;;18.95;;
79025;SDS011;71097;44.760;37.726;2023-07-09T02:08:00;22.83;;;18.33;;
79025;SDS011;71097;44.760;37.726;2023-07-09T02:09:04;20.80;;;17.30;;
79025;SDS011;71097;44.760;37.726;2023-07-09T02:10:07;21.35;;;16.67;;
79025;SDS011;71097;44.760;37.726;2023-07-09T02:11:09;19.95;;;17.92;;
79025;SDS011;71097;44.760;37.726;2023-07-09T02:12:11;22.33;;;17.92;;
79025;SDS011;71097;44.760;37.726;2023-07-09T02:13:13;19.25;;;17.25;;
79025;SDS011;71097;44.760;37.726;2023-07-09T02:14:15;20.13;;;17.60;;
79025;SDS011;71097;44.760;37.726;2023-07-09T02:15:17;20.95;;;17.23;;
79025;SDS011;71097;44.760;37.726;2023-07-09T02:16:19;20.05;;;17.05;;
79025;SDS011;71097;44.760;37.726;2023-07-09T02:17:20;21.13;;;18.05;;
79025;SDS011;71097;44.760;37.726;2023-07-09T02:18:22;22.38;;;17.85;;
79025;SDS011;71097;44.760;37.726;2023-07-09T02:19:24;21.20;;;17.67;;
79025;SDS011;71097;44.760;37.726;2023-07-09T02:20:26;21.80;;;16.58;;
79025;SDS011;71097;44.760;37.726;2023-07-09T02:21:27;19.63;;;17.58;;
79025;SDS011;71097;44.760;37.726;2023-07-09T02:22:30;20.38;;;16.80;;
79025;SDS011;71097;44.760;37.726;2023-07-09T02:23:33;22.67;;;16.95;;
79025;SDS011;71097;44.760;37.726;2023-07-09T02:24:34;25.00;;;17.92;;
79025;SDS011;71097;44.760;37.726;2023-07-09T02:25:36;23.00;;;17.13;;
79025;SDS011;71097;44.760;37.726;2023-07-09T02:26:38;21.15;;;17.08;;
79025;SDS011;71097;44.760;37.726;2023-07-09T02:27:39;19.55;;;17.35;;
79025;SDS011;71097;44.760;37.726;2023-07-09T02:28:41;22.85;;;20.33;;
79025;SDS011;71097;44.760;37.726;2023-07-09T02:29:44;24.90;;;18.25;;
79025;SDS011;71097;44.760;37.726;2023-07-09T02:30:46;20.25;;;17.20;;
79025;SDS011;71097;44.760;37.726;2023-07-09T02:31:48;25.77;;;19.85;;
79025;SDS011;71097;44.760;37.726;2023-07-09T02:32:51;22.90;;;17.42;;
79025;SDS011;71097;44.760;37.726;2023-07-09T02:34:56;22.55;;;17.70;;
79025;SDS011;71097;44.760;37.726;2023-07-09T02:35:59;22.65;;;18.52;;
79025;SDS011;71097;44.760;37.726;2023-07-09T02:37:01;20.23;;;17.58;;
79025;SDS011;71097;44.760;37.726;2023-07-09T02:38:03;21.38;;;17.25;;
79025;SDS011;71097;44.760;37.726;2023-07-09T02:39:05;20.52;;;16.13;;
79025;SDS011;71097;44.760;37.726;2023-07-09T02:40:07;23.55;;;18.10;;
79025;SDS011;71097;44.760;37.726;2023-07-09T02:41:10;26.35;;;17.70;;
79025;SDS011;71097;44.760;37.726;2023-07-09T02:42:12;25.90;;;18.35;;
79025;SDS011;71097;44.760;37.726;2023-07-09T02:43:16;19.15;;;16.95;;
79025;SDS011;71097;44.760;37.726;2023-07-09T02:44:17;24.20;;;17.05;;
79025;SDS011;71097;44.760;37.726;2023-07-09T02:45:19;18.35;;;15.43;;
79025;SDS011;71097;44.760;37.726;2023-07-09T02:46:22;20.48;;;17.15;;
79025;SDS011;71097;44.760;37.726;2023-07-09T02:47:23;21.17;;;16.15;;
79025;SDS011;71097;44.760;37.726;2023-07-09T02:48:27;20.17;;;15.73;;
79025;SDS011;71097;44.760;37.726;2023-07-09T02:49:28;20.05;;;16.55;;
79025;SDS011;71097;44.760;37.726;2023-07-09T02:50:30;22.50;;;16.30;;
79025;SDS011;71097;44.760;37.726;2023-07-09T02:51:31;20.10;;;17.15;;
79025;SDS011;71097;44.760;37.726;2023-07-09T02:52:34;19.05;;;16.52;;
79025;SDS011;71097;44.760;37.726;2023-07-09T02:53:35;18.90;;;16.00;;
79025;SDS011;71097;44.760;37.726;2023-07-09T02:54:37;19.67;;;16.80;;
79025;SDS011;71097;44.760;37.726;2023-07-09T02:55:39;20.75;;;16.85;;
79025;SDS011;71097;44.760;37.726;2023-07-09T02:56:40;18.92;;;15.88;;
79025;SDS011;71097;44.760;37.726;2023-07-09T02:57:41;18.15;;;16.33;;
79025;SDS011;71097;44.760;37.726;2023-07-09T02:58:43;20.08;;;15.45;;
79025;SDS011;71097;44.760;37.726;2023-07-09T02:59:45;22.38;;;16.83;;
79025;SDS011;71097;44.760;37.726;2023-07-09T03:00:48;18.85;;;15.65;;
79025;SDS011;71097;44.760;37.726;2023-07-09T03:01:53;21.42;;;16.80;;
79025;SDS011;71097;44.760;37.726;2023-07-09T03:02:55;23.35;;;16.42;;
79025;SDS011;71097;44.760;37.726;2023-07-09T03:03:57;21.35;;;17.05;;
79025;SDS011;71097;44.760;37.726;2023-07-09T03:05:00;20.38;;;16.52;;
79025;SDS011;71097;44.760;37.726;2023-07-09T03:06:02;22.25;;;17.05;;
79025;SDS011;71097;44.760;37.726;2023-07-09T03:07:03;21.08;;;17.17;;
79025;SDS011;71097;44.760;37.726;2023-07-09T03:08:05;19.65;;;17.30;;
79025;SDS011;71097;44.760;37.726;2023-07-09T03:09:07;20.85;;;18.17;;
79025;SDS011;71097;44.760;37.726;2023-07-09T03:10:09;20.48;;;16.52;;
79025;SDS011;71097;44.760;37.726;2023-07-09T03:11:11;23.48;;;17.45;;
79025;SDS011;71097;44.760;37.726;2023-07-09T03:12:14;24.45;;;17.65;;
79025;SDS011;71097;44.760;37.726;2023-07-09T03:13:15;22.17;;;17.17;;
79025;SDS011;71097;44.760;37.726;2023-07-09T03:14:17;22.05;;;17.15;;
79025;SDS011;71097;44.760;37.726;2023-07-09T03:15:18;22.85;;;16.98;;
79025;SDS011;71097;44.760;37.726;2023-07-09T03:16:20;18.58;;;16.60;;
79025;SDS011;71097;44.760;37.726;2023-07-09T03:17:21;23.13;;;16.52;;
79025;SDS011;71097;44.760;37.726;2023-07-09T03:18:23;18.17;;;15.60;;
79025;SDS011;71097;44.760;37.726;2023-07-09T03:19:25;20.23;;;16.08;;
79025;SDS011;71097;44.760;37.726;2023-07-09T03:20:26;19.27;;;15.55;;
79025;SDS011;71097;44.760;37.726;2023-07-09T03:21:28;21.10;;;15.73;;
79025;SDS011;71097;44.760;37.726;2023-07-09T03:22:30;20.02;;;15.48;;
79025;SDS011;71097;44.760;37.726;2023-07-09T03:23:31;17.25;;;15.38;;
79025;SDS011;71097;44.760;37.726;2023-07-09T03:24:33;18.63;;;16.63;;
79025;SDS011;71097;44.760;37.726;2023-07-09T03:25:34;19.08;;;15.27;;
79025;SDS011;71097;44.760;37.726;2023-07-09T03:26:42;18.58;;;15.23;;
79025;SDS011;71097;44.760;37.726;2023-07-09T03:27:43;20.63;;;16.75;;
79025;SDS011;71097;44.760;37.726;2023-07-09T03:28:49;16.23;;;13.52;;
79025;SDS011;71097;44.760;37.726;2023-07-09T03:29:50;19.10;;;13.98;;
79025;SDS011;71097;44.760;37.726;2023-07-09T03:30:53;19.05;;;16.75;;
79025;SDS011;71097;44.760;37.726;2023-07-09T03:31:56;18.33;;;14.00;;
79025;SDS011;71097;44.760;37.726;2023-07-09T03:32:57;20.88;;;15.32;;
79025;SDS011;71097;44.760;37.726;2023-07-09T03:33:59;18.23;;;15.15;;
79025;SDS011;71097;44.760;37.726;2023-07-09T03:35:01;17.00;;;15.02;;
79025;SDS011;71097;44.760;37.726;2023-07-09T03:36:02;19.27;;;15.13;;
79025;SDS011;71097;44.760;37.726;2023-07-09T03:37:05;20.13;;;15.38;;
79025;SDS011;71097;44.760;37.726;2023-07-09T03:38:09;19.45;;;15.85;;
79025;SDS011;71097;44.760;37.726;2023-07-09T03:39:11;25.05;;;17.27;;
79025;SDS011;71097;44.760;37.726;2023-07-09T03:40:13;20.17;;;15.40;;
79025;SDS011;71097;44.760;37.726;2023-07-09T03:41:23;19.85;;;14.73;;
79025;SDS011;71097;44.760;37.726;2023-07-09T03:42:25;17.30;;;15.38;;
79025;SDS011;71097;44.760;37.726;2023-07-09T03:43:27;18.10;;;15.85;;
79025;SDS011;71097;44.760;37.726;2023-07-09T03:44:28;20.42;;;15.35;;
79025;SDS011;71097;44.760;37.726;2023-07-09T03:45:30;21.25;;;16.42;;
79025;SDS011;71097;44.760;37.726;2023-07-09T03:46:33;19.67;;;15.00;;
79025;SDS011;71097;44.760;37.726;2023-07-09T03:47:34;19.15;;;15.45;;
79025;SDS011;71097;44.760;37.726;2023-07-09T03:48:36;19.05;;;15.85;;
79025;SDS011;71097;44.760;37.726;2023-07-09T03:49:37;19.95;;;17.35;;
79025;SDS011;71097;44.760;37.726;2023-07-09T03:50:39;18.50;;;15.40;;
79025;SDS011;71097;44.760;37.726;2023-07-09T03:51:42;18.58;;;15.38;;
79025;SDS011;71097;44.760;37.726;2023-07-09T03:52:43;16.80;;;14.20;;
79025;SDS011;71097;44.760;37.726;2023-07-09T03:53:47;15.85;;;12.88;;
79025;SDS011;71097;44.760;37.726;2023-07-09T03:54:48;17.90;;;14.70;;
79025;SDS011;71097;44.760;37.726;2023-07-09T03:55:53;17.27;;;14.23;;
79025;SDS011;71097;44.760;37.726;2023-07-09T03:56:56;20.33;;;14.85;;
79025;SDS011;71097;44.760;37.726;2023-07-09T03:57:58;16.63;;;12.73;;
79025;SDS011;71097;44.760;37.726;2023-07-09T03:58:59;17.00;;;13.70;;
79025;SDS011;71097;44.760;37.726;2023-07-09T04:00:02;15.95;;;12.40;;
79025;SDS011;71097;44.760;37.726;2023-07-09T04:01:16;20.27;;;12.55;;
79025;SDS011;71097;44.760;37.726;2023-07-09T04:02:17;15.80;;;12.77;;
79025;SDS011;71097;44.760;37.726;2023-07-09T04:03:19;18.33;;;12.50;;
79025;SDS011;71097;44.760;37.726;2023-07-09T04:04:21;15.60;;;13.70;;
79025;SDS011;71097;44.760;37.726;2023-07-09T04:05:25;13.75;;;11.38;;
79025;SDS011;71097;44.760;37.726;2023-07-09T04:06:28;15.90;;;11.90;;
79025;SDS011;71097;44.760;37.726;2023-07-09T04:07:30;18.50;;;12.43;;
79025;SDS011;71097;44.760;37.726;2023-07-09T04:08:31;15.18;;;11.27;;
79025;SDS011;71097;44.760;37.726;2023-07-09T04:09:33;21.17;;;12.48;;
79025;SDS011;71097;44.760;37.726;2023-07-09T04:10:34;13.80;;;11.15;;
79025;SDS011;71097;44.760;37.726;2023-07-09T04:11:36;13.68;;;11.10;;
79025;SDS011;71097;44.760;37.726;2023-07-09T04:12:37;14.43;;;10.80;;
79025;SDS011;71097;44.760;37.726;2023-07-09T04:13:39;12.38;;;10.20;;
79025;SDS011;71097;44.760;37.726;2023-07-09T04:14:42;14.18;;;11.27;;
79025;SDS011;71097;44.760;37.726;2023-07-09T04:15:44;15.15;;;11.10;;
79025;SDS011;71097;44.760;37.726;2023-07-09T04:16:45;15.40;;;11.38;;
79025;SDS011;71097;44.760;37.726;2023-07-09T04:17:47;14.88;;;11.05;;
79025;SDS011;71097;44.760;37.726;2023-07-09T04:18:48;12.65;;;11.15;;
79025;SDS011;71097;44.760;37.726;2023-07-09T04:19:50;14.85;;;10.90;;
79025;SDS011;71097;44.760;37.726;2023-07-09T04:20:52;16.38;;;10.95;;
79025;SDS011;71097;44.760;37.726;2023-07-09T04:21:53;14.18;;;10.80;;
79025;SDS011;71097;44.760;37.726;2023-07-09T04:22:55;14.82;;;10.45;;
79025;SDS011;71097;44.760;37.726;2023-07-09T04:23:57;13.45;;;11.65;;
79025;SDS011;71097;44.760;37.726;2023-07-09T04:24:58;15.82;;;10.88;;
79025;SDS011;71097;44.760;37.726;2023-07-09T04:25:59;16.48;;;10.70;;
79025;SDS011;71097;44.760;37.726;2023-07-09T04:27:03;12.07;;;9.98;;
79025;SDS011;71097;44.760;37.726;2023-07-09T04:28:05;14.73;;;10.40;;
79025;SDS011;71097;44.760;37.726;2023-07-09T04:29:07;13.85;;;10.02;;
79025;SDS011;71097;44.760;37.726;2023-07-09T04:30:10;14.68;;;10.00;;
79025;SDS011;71097;44.760;37.726;2023-07-09T04:31:13;13.65;;;10.32;;
79025;SDS011;71097;44.760;37.726;2023-07-09T04:32:14;13.68;;;10.82;;
79025;SDS011;71097;44.760;37.726;2023-07-09T04:33:17;18.45;;;11.95;;
79025;SDS011;71097;44.760;37.726;2023-07-09T04:34:19;12.90;;;11.20;;
79025;SDS011;71097;44.760;37.726;2023-07-09T04:35:20;14.57;;;10.13;;
79025;SDS011;71097;44.760;37.726;2023-07-09T04:36:23;13.27;;;10.98;;
79025;SDS011;71097;44.760;37.726;2023-07-09T04:38:28;17.50;;;11.02;;
79025;SDS011;71097;44.760;37.726;2023-07-09T04:39:29;15.77;;;11.45;;
79025;SDS011;71097;44.760;37.726;2023-07-09T04:40:32;16.58;;;12.07;;
79025;SDS011;71097;44.760;37.726;2023-07-09T04:41:33;19.02;;;10.95;;
79025;SDS011;71097;44.760;37.726;2023-07-09T04:42:35;20.67;;;10.43;;
79025;SDS011;71097;44.760;37.726;2023-07-09T04:43:38;17.05;;;10.05;;
79025;SDS011;71097;44.760;37.726;2023-07-09T04:44:40;15.38;;;10.10;;
79025;SDS011;71097;44.760;37.726;2023-07-09T04:45:41;14.85;;;10.43;;
79025;SDS011;71097;44.760;37.726;2023-07-09T04:46:43;14.50;;;10.32;;
79025;SDS011;71097;44.760;37.726;2023-07-09T04:47:44;12.60;;;10.07;;
79025;SDS011;71097;44.760;37.726;2023-07-09T04:48:46;13.95;;;10.20;;
79025;SDS011;71097;44.760;37.726;2023-07-09T04:49:48;16.08;;;10.82;;
79025;SDS011;71097;44.760;37.726;2023-07-09T04:50:49;13.90;;;10.32;;
79025;SDS011;71097;44.760;37.726;2023-07-09T04:51:51;16.92;;;10.63;;
79025;SDS011;71097;44.760;37.726;2023-07-09T04:52:53;12.52;;;9.57;;
79025;SDS011;71097;44.760;37.726;2023-07-09T04:53:55;15.27;;;10.32;;
79025;SDS011;71097;44.760;37.726;2023-07-09T04:54:56;14.23;;;9.57;;
79025;SDS011;71097;44.760;37.726;2023-07-09T04:55:58;15.48;;;9.80;;
79025;SDS011;71097;44.760;37.726;2023-07-09T04:56:59;15.68;;;10.35;;
79025;SDS011;71097;44.760;37.726;2023-07-09T04:58:01;15.95;;;10.02;;
79025;SDS011;71097;44.760;37.726;2023-07-09T04:59:02;14.65;;;10.10;;
79025;SDS011;71097;44.760;37.726;2023-07-09T05:00:04;14.02;;;8.98;;
79025;SDS011;71097;44.760;37.726;2023-07-09T05:01:06;13.73;;;9.50;;
79025;SDS011;71097;44.760;37.726;2023-07-09T05:02:08;13.38;;;9.43;;
79025;SDS011;71097;44.760;37.726;2023-07-09T05:03:09;12.43;;;9.45;;
79025;SDS011;71097;44.760;37.726;2023-07-09T05:04:11;13.52;;;9.45;;
79025;SDS011;71097;44.760;37.726;2023-07-09T05:05:12;12.85;;;8.80;;
79025;SDS011;71097;44.760;37.726;2023-07-09T05:06:15;13.73;;;9.85;;
79025;SDS011;71097;44.760;37.726;2023-07-09T05:07:17;12.13;;;8.63;;
79025;SDS011;71097;44.760;37.726;2023-07-09T05:08:18;15.10;;;9.57;;
79025;SDS011;71097;44.760;37.726;2023-07-09T05:09:20;13.18;;;9.38;;
79025;SDS011;71097;44.760;37.726;2023-07-09T05:10:22;14.30;;;10.23;;
79025;SDS011;71097;44.760;37.726;2023-07-09T05:11:23;12.57;;;10.02;;
79025;SDS011;71097;44.760;37.726;2023-07-09T05:12:26;14.60;;;10.70;;
79025;SDS011;71097;44.760;37.726;2023-07-09T05:13:28;14.35;;;9.88;;
79025;SDS011;71097;44.760;37.726;2023-07-09T05:14:29;13.27;;;9.73;;
79025;SDS011;71097;44.760;37.726;2023-07-09T05:15:31;12.27;;;9.93;;
79025;SDS011;71097;44.760;37.726;2023-07-09T05:16:32;13.02;;;9.70;;
79025;SDS011;71097;44.760;37.726;2023-07-09T05:17:34;15.25;;;10.50;;
79025;SDS011;71097;44.760;37.726;2023-07-09T05:18:36;15.93;;;10.32;;
79025;SDS011;71097;44.760;37.726;2023-07-09T05:19:38;16.33;;;10.05;;
79025;SDS011;71097;44.760;37.726;2023-07-09T05:20:40;13.65;;;9.35;;
79025;SDS011;71097;44.760;37.726;2023-07-09T05:21:42;13.75;;;9.98;;
79025;SDS011;71097;44.760;37.726;2023-07-09T05:22:44;13.57;;;10.02;;
79025;SDS011;71097;44.760;37.726;2023-07-09T05:23:45;12.65;;;10.02;;
79025;SDS011;71097;44.760;37.726;2023-07-09T05:24:47;13.85;;;10.57;;
79025;SDS011;71097;44.760;37.726;2023-07-09T05:25:48;13.90;;;9.85;;
79025;SDS011;71097;44.760;37.726;2023-07-09T05:26:50;16.42;;;9.43;;
79025;SDS011;71097;44.760;37.726;2023-07-09T05:27:51;13.50;;;9.93;;
79025;SDS011;71097;44.760;37.726;2023-07-09T05:28:53;12.18;;;9.45;;
79025;SDS011;71097;44.760;37.726;2023-07-09T05:29:57;12.30;;;9.23;;
79025;SDS011;71097;44.760;37.726;2023-07-09T05:30:59;12.90;;;10.02;;
79025;SDS011;71097;44.760;37.726;2023-07-09T05:32:00;14.63;;;9.82;;
79025;SDS011;71097;44.760;37.726;2023-07-09T05:33:02;16.02;;;9.82;;
79025;SDS011;71097;44.760;37.726;2023-07-09T05:34:04;14.55;;;8.93;;
79025;SDS011;71097;44.760;37.726;2023-07-09T05:35:05;14.48;;;9.57;;
79025;SDS011;71097;44.760;37.726;2023-07-09T05:36:08;14.65;;;9.98;;
79025;SDS011;71097;44.760;37.726;2023-07-09T05:37:16;14.43;;;9.98;;
79025;SDS011;71097;44.760;37.726;2023-07-09T05:38:18;12.45;;;8.70;;
79025;SDS011;71097;44.760;37.726;2023-07-09T05:39:19;11.93;;;9.25;;
79025;SDS011;71097;44.760;37.726;2023-07-09T05:40:21;12.52;;;8.68;;
79025;SDS011;71097;44.760;37.726;2023-07-09T05:41:25;12.20;;;9.07;;
79025;SDS011;71097;44.760;37.726;2023-07-09T05:42:27;15.35;;;9.32;;
79025;SDS011;71097;44.760;37.726;2023-07-09T05:43:29;14.35;;;10.10;;
79025;SDS011;71097;44.760;37.726;2023-07-09T05:44:31;13.50;;;9.93;;
79025;SDS011;71097;44.760;37.726;2023-07-09T05:45:32;12.20;;;9.95;;
79025;SDS011;71097;44.760;37.726;2023-07-09T05:46:35;14.00;;;9.30;;
79025;SDS011;71097;44.760;37.726;2023-07-09T05:47:37;13.48;;;10.25;;
79025;SDS011;71097;44.760;37.726;2023-07-09T05:48:38;12.68;;;9.75;;
79025;SDS011;71097;44.760;37.726;2023-07-09T05:49:40;14.68;;;9.25;;
79025;SDS011;71097;44.760;37.726;2023-07-09T05:50:42;12.45;;;9.60;;
79025;SDS011;71097;44.760;37.726;2023-07-09T05:51:44;13.60;;;9.45;;
79025;SDS011;71097;44.760;37.726;2023-07-09T05:52:46;14.25;;;10.18;;
79025;SDS011;71097;44.760;37.726;2023-07-09T05:53:47;15.60;;;10.30;;
79025;SDS011;71097;44.760;37.726;2023-07-09T05:54:49;11.85;;;9.52;;
79025;SDS011;71097;44.760;37.726;2023-07-09T05:55:55;15.18;;;10.27;;
79025;SDS011;71097;44.760;37.726;2023-07-09T05:56:57;13.80;;;9.77;;
79025;SDS011;71097;44.760;37.726;2023-07-09T05:57:58;12.80;;;9.45;;
79025;SDS011;71097;44.760;37.726;2023-07-09T05:59:01;15.57;;;9.93;;
79025;SDS011;71097;44.760;37.726;2023-07-09T06:00:03;15.27;;;10.90;;
79025;SDS011;71097;44.760;37.726;2023-07-09T06:01:14;16.13;;;10.32;;
79025;SDS011;71097;44.760;37.726;2023-07-09T06:02:17;11.88;;;9.43;;
79025;SDS011;71097;44.760;37.726;2023-07-09T06:03:20;13.68;;;10.73;;
79025;SDS011;71097;44.760;37.726;2023-07-09T06:04:22;14.60;;;13.00;;
79025;SDS011;71097;44.760;37.726;2023-07-09T06:05:27;14.23;;;10.45;;
79025;SDS011;71097;44.760;37.726;2023-07-09T06:06:30;14.48;;;12.98;;
79025;SDS011;71097;44.760;37.726;2023-07-09T06:07:32;17.83;;;11.27;;
79025;SDS011;71097;44.760;37.726;2023-07-09T06:08:33;16.50;;;11.55;;
79025;SDS011;71097;44.760;37.726;2023-07-09T06:09:35;13.00;;;11.07;;